Time;durP1;ratioP1;P1;durP2;ratioP2;P2;SDS_P1;SDS_P2;PMS_P1;PMS_P2;Temp;Humidity;BMP_temperature;BMP_pressure;BME280_temperature;BME280_humidity;BME280_pressure;Samples;Min_cycle;Max_cycle;Signal;HPM_P1;HPM_P2
2023/06/27 00:00:10;;;;;;;4.73;1.80;;;;;;;13.66;100.00;101201.09;691299;28;1476;-56
2023/06/27 00:00:30;;;;;;;3.65;1.80;;;;;;;13.69;100.00;101200.22;693046;28;976;-56
2023/06/27 00:00:51;;;;;;;2.63;1.60;;;;;;;13.70;100.00;101201.97;692798;28;4531;-56
2023/06/27 00:01:11;;;;;;;3.40;1.90;;;;;;;13.71;100.00;101203.72;691248;28;1559;-55
2023/06/27 00:01:31;;;;;;;3.30;1.90;;;;;;;13.69;100.00;101198.44;692907;28;975;-56
2023/06/27 00:01:52;;;;;;;3.15;1.80;;;;;;;13.68;100.00;101206.34;693078;28;935;-56
2023/06/27 00:02:13;;;;;;;3.20;1.60;;;;;;;13.69;100.00;101194.94;691235;28;1564;-56
2023/06/27 00:02:34;;;;;;;3.40;1.80;;;;;;;13.70;100.00;101201.97;693157;28;1486;-56
2023/06/27 00:02:55;;;;;;;3.67;1.90;;;;;;;13.69;100.00;101201.06;692787;28;1469;-55
2023/06/27 00:03:18;;;;;;;3.53;1.70;;;;;;;13.70;100.00;101204.59;691809;28;1600;-55
2023/06/27 00:03:38;;;;;;;3.22;1.50;;;;;;;13.67;100.00;101199.38;692974;28;1002;-55
2023/06/27 00:04:00;;;;;;;3.40;1.65;;;;;;;13.69;100.00;101200.22;690977;28;4486;-56
2023/06/27 00:04:23;;;;;;;3.20;1.80;;;;;;;13.68;100.00;101198.47;692504;28;1287;-55
2023/06/27 00:04:43;;;;;;;4.13;1.90;;;;;;;13.67;100.00;101199.38;693085;28;1000;-56
2023/06/27 00:05:05;;;;;;;4.27;1.67;;;;;;;13.63;100.00;101196.75;689094;28;917;-56
2023/06/27 00:05:26;;;;;;;4.18;1.83;;;;;;;13.57;100.00;101191.56;690082;28;951;-56
2023/06/27 00:05:49;;;;;;;3.42;1.88;;;;;;;13.54;100.00;101202.09;689297;28;2296;-56
2023/06/27 00:06:09;;;;;;;2.80;1.60;;;;;;;13.57;100.00;101212.56;685626;28;1505;-54
2023/06/27 00:06:29;;;;;;;3.72;1.73;;;;;;;13.56;100.00;101200.31;687098;28;988;-55
2023/06/27 00:06:50;;;;;;;3.30;1.70;;;;;;;13.57;100.00;101204.69;687675;28;4290;-55
2023/06/27 00:07:10;;;;;;;3.37;1.70;;;;;;;13.57;100.00;101204.69;688703;28;1532;-54
2023/06/27 00:07:31;;;;;;;3.28;1.80;;;;;;;13.56;100.00;101200.31;689298;28;1316;-57
2023/06/27 00:07:51;;;;;;;4.90;1.88;;;;;;;13.54;100.00;101211.72;690111;28;1311;-55
2023/06/27 00:08:12;;;;;;;4.63;1.80;;;;;;;13.52;100.00;101209.09;691580;28;1606;-57
2023/06/27 00:08:33;;;;;;;3.38;1.60;;;;;;;13.57;100.00;101204.69;691707;28;1412;-56
2023/06/27 00:08:54;;;;;;;4.32;1.73;;;;;;;13.58;100.00;101206.44;692951;28;1157;-56
2023/06/27 00:09:15;;;;;;;4.20;1.80;;;;;;;13.55;100.00;101213.47;691193;28;1489;-56
2023/06/27 00:09:35;;;;;;;4.22;1.80;;;;;;;13.53;100.00;101210.84;692379;28;889;-56
2023/06/27 00:09:56;;;;;;;3.47;1.80;;;;;;;13.53;100.00;101210.00;692195;28;4415;-55
2023/06/27 00:10:16;;;;;;;3.67;1.60;;;;;;;13.52;100.00;101209.09;691135;28;1469;-57
2023/06/27 00:10:36;;;;;;;4.75;1.70;;;;;;;13.56;100.00;101215.22;692330;28;998;-56
2023/06/27 00:10:57;;;;;;;4.40;1.73;;;;;;;13.56;100.00;101205.56;693228;28;828;-56
2023/06/27 00:11:17;;;;;;;3.72;1.77;;;;;;;13.55;100.00;101213.47;691617;28;1507;-56
2023/06/27 00:11:39;;;;;;;3.67;1.70;;;;;;;13.56;100.00;101205.56;692957;28;844;-56
2023/06/27 00:11:59;;;;;;;2.47;1.40;;;;;;;13.60;100.00;101206.44;691554;28;1460;-56
2023/06/27 00:12:20;;;;;;;4.43;1.80;;;;;;;13.60;100.00;101207.28;692970;28;1319;-56
2023/06/27 00:12:40;;;;;;;4.38;1.98;;;;;;;13.58;100.00;101210.81;693074;28;1391;-56
2023/06/27 00:13:00;;;;;;;4.40;1.90;;;;;;;13.59;100.00;101209.94;694789;28;4734;-57
2023/06/27 00:13:21;;;;;;;4.20;1.85;;;;;;;13.57;100.00;101207.31;696123;28;939;-56
2023/06/27 00:13:42;;;;;;;2.97;1.60;;;;;;;13.57;100.00;101216.97;695998;28;1434;-56
2023/06/27 00:14:04;;;;;;;3.20;1.60;;;;;;;13.55;100.00;101216.09;694673;28;1566;-56
2023/06/27 00:14:25;;;;;;;3.10;1.77;;;;;;;13.54;100.00;101212.59;696089;28;1365;-56
2023/06/27 00:14:45;;;;;;;3.37;1.90;;;;;;;13.56;100.00;101212.59;696078;28;942;-55
2023/06/27 00:15:06;;;;;;;4.23;1.70;;;;;;;13.56;100.00;101209.97;691466;28;1654;-55
2023/06/27 00:15:29;;;;;;;4.20;1.90;;;;;;;13.56;100.00;101208.19;691508;28;903;-55
2023/06/27 00:15:52;;;;;;;3.50;1.70;;;;;;;13.57;100.00;101206.47;691713;28;4487;-56
2023/06/27 00:16:12;;;;;;;4.07;1.80;;;;;;;13.57;100.00;101206.47;690002;28;3272;-55
2023/06/27 00:16:33;;;;;;;4.43;1.77;;;;;;;13.56;100.00;101205.56;691488;28;951;-56
2023/06/27 00:16:54;;;;;;;4.07;1.55;;;;;;;13.55;100.00;101208.22;692365;28;894;-56
2023/06/27 00:17:16;;;;;;;3.45;1.70;;;;;;;13.53;100.00;101208.22;694485;28;994;-55
2023/06/27 00:17:37;;;;;;;3.60;1.80;;;;;;;13.54;100.00;101201.22;693407;28;1497;-56
2023/06/27 00:17:57;;;;;;;3.03;1.70;;;;;;;13.53;100.00;101199.50;691622;28;860;-56
2023/06/27 00:18:23;;;;;;;3.67;1.70;;;;;;;13.54;100.00;101202.09;690074;28;1655;-56
2023/06/27 00:18:49;;;;;;;4.43;1.75;;;;;;;13.53;100.00;101207.38;690694;28;4561;-56
2023/06/27 00:19:10;;;;;;;3.83;2.10;;;;;;;13.52;100.00;101203.00;689368;28;1670;-56
2023/06/27 00:19:31;;;;;;;4.05;1.70;;;;;;;13.49;100.00;101206.50;693515;28;950;-56
2023/06/27 00:19:57;;;;;;;3.63;1.67;;;;;;;13.48;100.00;101207.38;695016;28;1027;-57
2023/06/27 00:20:18;;;;;;;3.28;1.70;;;;;;;13.49;100.00;101209.13;694719;28;1523;-56
2023/06/27 00:20:38;;;;;;;3.13;1.70;;;;;;;13.47;100.00;101207.41;696022;28;1089;-55
2023/06/27 00:20:59;;;;;;;3.93;2.00;;;;;;;13.44;100.00;101200.41;695811;28;903;-56
2023/06/27 00:21:21;;;;;;;3.90;2.00;;;;;;;13.44;100.00;101205.66;695405;28;808;-54
2023/06/27 00:21:41;;;;;;;3.63;1.75;;;;;;;13.45;100.00;101204.78;695642;28;4373;-56
2023/06/27 00:22:04;;;;;;;4.17;1.70;;;;;;;13.46;100.00;101209.16;694653;28;1793;-56
2023/06/27 00:22:26;;;;;;;4.40;1.77;;;;;;;13.48;100.00;101206.53;696021;28;828;-56
2023/06/27 00:22:46;;;;;;;3.60;1.88;;;;;;;13.47;100.00;101210.88;695976;28;1443;-56
2023/06/27 00:23:21;;;;;;;3.27;1.63;;;;;;;13.43;100.00;101207.44;694775;28;1521;-56
2023/06/27 00:23:43;;;;;;;3.40;1.85;;;;;;;13.37;100.00;101212.72;696029;28;1615;-56
2023/06/27 00:24:04;;;;;;;2.90;1.70;;;;;;;13.34;100.00;101207.47;694876;28;1265;-56
2023/06/27 00:24:24;;;;;;;5.50;1.70;;;;;;;13.29;100.00;101212.75;696452;28;844;-56
2023/06/27 00:24:45;;;;;;;4.93;1.77;;;;;;;13.30;100.00;101205.75;695471;28;4324;-56
2023/06/27 00:25:11;;;;;;;3.50;1.73;;;;;;;13.28;100.00;101210.16;694645;28;1573;-56
2023/06/27 00:25:32;;;;;;;4.10;1.70;;;;;;;13.29;100.00;101210.13;694710;28;1010;-56
2023/06/27 00:25:52;;;;;;;4.10;1.83;;;;;;;13.30;100.00;101211.00;696125;28;844;-56
2023/06/27 00:26:13;;;;;;;3.75;1.83;;;;;;;13.32;100.00;101208.34;694688;28;1474;-54
2023/06/27 00:26:33;;;;;;;3.23;1.60;;;;;;;13.31;100.00;101209.25;696050;28;706;-56
2023/06/27 00:26:54;;;;;;;3.80;1.70;;;;;;;13.26;100.00;101210.16;696221;28;784;-56
2023/06/27 00:27:15;;;;;;;3.60;1.70;;;;;;;13.24;100.00;101209.28;694410;28;1557;-56
2023/06/27 00:27:36;;;;;;;3.37;1.90;;;;;;;13.22;100.00;101204.94;696290;28;931;-56
2023/06/27 00:27:56;;;;;;;4.10;1.75;;;;;;;13.20;100.00;101211.97;695736;28;4563;-56
2023/06/27 00:28:17;;;;;;;3.70;1.80;;;;;;;13.22;100.00;101205.81;694536;28;1672;-55
2023/06/27 00:28:37;;;;;;;3.97;2.00;;;;;;;13.28;100.00;101205.75;696083;28;1458;-56
2023/06/27 00:28:58;;;;;;;3.60;2.00;;;;;;;13.31;100.00;101209.25;695909;28;1436;-56
2023/06/27 00:29:18;;;;;;;3.53;1.73;;;;;;;13.35;100.00;101206.63;691659;28;1515;-55
2023/06/27 00:29:39;;;;;;;4.17;1.90;;;;;;;13.36;100.00;101207.47;693485;28;746;-56
2023/06/27 00:29:59;;;;;;;4.43;2.10;;;;;;;13.29;100.00;101212.75;690514;28;1428;-56
2023/06/27 00:30:22;;;;;;;5.28;1.90;;;;;;;13.26;100.00;101206.66;687652;28;1398;-55
2023/06/27 00:30:43;;;;;;;3.80;1.70;;;;;;;13.24;100.00;101213.69;687189;28;4469;-57
2023/06/27 00:31:03;;;;;;;3.73;1.83;;;;;;;13.21;100.00;101201.44;687277;28;1816;-56
2023/06/27 00:31:24;;;;;;;3.03;1.70;;;;;;;13.19;100.00;101203.19;691111;28;2460;-56
2023/06/27 00:31:44;;;;;;;2.95;1.90;;;;;;;13.21;100.00;101209.31;691134;28;958;-57
2023/06/27 00:32:05;;;;;;;4.60;1.80;;;;;;;13.24;100.00;101205.81;691661;28;1561;-56
2023/06/27 00:32:26;;;;;;;4.18;1.85;;;;;;;13.26;100.00;101207.53;692612;28;996;-56
2023/06/27 00:32:46;;;;;;;3.50;1.80;;;;;;;13.27;100.00;101209.25;693223;28;876;-56
2023/06/27 00:33:09;;;;;;;4.40;1.90;;;;;;;13.28;100.00;101215.41;694032;28;1455;-56
2023/06/27 00:33:29;;;;;;;3.38;1.80;;;;;;;13.24;100.00;101211.06;695665;28;1006;-56
2023/06/27 00:33:52;;;;;;;4.30;1.80;;;;;;;13.19;100.00;101205.81;692524;28;4642;-56
2023/06/27 00:34:12;;;;;;;4.68;1.88;;;;;;;13.20;100.00;101209.34;691333;28;1072;-56
2023/06/27 00:34:33;;;;;;;4.50;1.90;;;;;;;13.21;100.00;101211.03;689035;28;2023;-55
2023/06/27 00:34:55;;;;;;;4.53;1.73;;;;;;;13.21;100.00;101208.41;688783;28;2101;-56
2023/06/27 00:35:17;;;;;;;3.65;1.88;;;;;;;13.20;100.00;101210.19;687616;28;1551;-55
2023/06/27 00:35:39;;;;;;;4.05;1.88;;;;;;;13.27;100.00;101209.25;688671;28;842;-56
2023/06/27 00:36:01;;;;;;;4.63;2.30;;;;;;;13.28;100.00;101203.13;685251;28;1188;-57
2023/06/27 00:36:21;;;;;;;4.53;2.00;;;;;;;13.32;100.00;101211.88;684928;28;1165;-57
2023/06/27 00:36:41;;;;;;;4.20;2.00;;;;;;;13.33;100.00;101210.97;684439;28;4406;-56
2023/06/27 00:37:04;;;;;;;3.63;1.83;;;;;;;13.34;100.00;101209.22;683054;28;1548;-57
2023/06/27 00:37:24;;;;;;;3.47;1.95;;;;;;;13.34;100.00;101204.84;685855;28;1059;-56
2023/06/27 00:37:44;;;;;;;4.40;1.70;;;;;;;13.32;100.00;101208.34;688429;28;797;-57
2023/06/27 00:38:05;;;;;;;4.73;1.70;;;;;;;13.29;100.00;101204.88;692127;28;1546;-56
2023/06/27 00:38:25;;;;;;;4.00;1.80;;;;;;;13.29;100.00;101207.50;689586;28;1166;-57
2023/06/27 00:38:46;;;;;;;4.40;1.90;;;;;;;13.31;100.00;101206.63;690167;28;5581;-57
2023/06/27 00:39:07;;;;;;;3.10;1.70;;;;;;;13.34;100.00;101201.34;689026;28;1545;-57
2023/06/27 00:39:29;;;;;;;3.53;1.70;;;;;;;13.35;100.00;101209.25;690361;28;1487;-54
2023/06/27 00:39:49;;;;;;;4.27;1.90;;;;;;;13.37;100.00;101206.59;687157;28;4665;-57
2023/06/27 00:40:10;;;;;;;4.13;1.80;;;;;;;13.38;100.00;101205.72;686676;28;1769;-55
2023/06/27 00:40:31;;;;;;;3.33;1.70;;;;;;;13.38;100.00;101211.84;687746;28;915;-56
2023/06/27 00:40:51;;;;;;;3.50;1.67;;;;;;;13.39;100.00;101213.59;687048;28;1067;-57
2023/06/27 00:41:11;;;;;;;4.07;1.98;;;;;;;13.39;100.00;101207.47;683486;28;1565;-57
2023/06/27 00:41:32;;;;;;;4.40;2.10;;;;;;;13.38;100.00;101211.84;688092;28;782;-56
2023/06/27 00:41:53;;;;;;;3.17;1.70;;;;;;;13.35;100.00;101206.63;690144;28;1600;-57
2023/06/27 00:42:14;;;;;;;4.03;1.80;;;;;;;13.33;100.00;101212.72;689172;28;868;-56
2023/06/27 00:42:34;;;;;;;3.23;1.70;;;;;;;13.33;100.00;101202.22;690268;28;1004;-57
2023/06/27 00:42:56;;;;;;;3.58;1.80;;;;;;;13.33;100.00;101208.34;689867;28;4560;-56
2023/06/27 00:43:17;;;;;;;4.03;1.90;;;;;;;13.35;100.00;101208.34;691331;28;1567;-57
2023/06/27 00:43:37;;;;;;;3.90;1.93;;;;;;;13.37;100.00;101210.09;693224;28;998;-57
2023/06/27 00:43:57;;;;;;;3.63;1.90;;;;;;;13.35;100.00;101204.00;693245;28;808;-57
2023/06/27 00:44:18;;;;;;;2.80;1.67;;;;;;;13.34;100.00;101210.09;690155;28;1556;-56
2023/06/27 00:44:39;;;;;;;4.32;1.90;;;;;;;13.32;100.00;101208.34;691430;28;1267;-57
2023/06/27 00:45:00;;;;;;;4.33;1.97;;;;;;;13.35;100.00;101210.97;691740;28;1335;-56
2023/06/27 00:45:22;;;;;;;3.58;1.60;;;;;;;13.40;100.00;101209.19;690243;28;1598;-56
2023/06/27 00:45:44;;;;;;;3.50;1.80;;;;;;;13.43;100.00;101207.44;688218;28;4480;-57
2023/06/27 00:46:07;;;;;;;4.73;1.83;;;;;;;13.47;100.00;101205.63;687040;28;1624;-57
2023/06/27 00:46:53;;;;;;;4.32;2.05;;;;;;;13.48;100.00;101206.53;691138;28;816;-56
2023/06/27 00:47:15;;;;;;;4.60;1.80;;;;;;;13.49;100.00;101209.13;688620;28;1422;-57
2023/06/27 00:47:36;;;;;;;3.53;1.80;;;;;;;13.46;100.00;101209.16;689478;28;1296;-56
2023/06/27 00:48:00;;;;;;;3.15;1.70;;;;;;;13.45;100.00;101212.66;692443;28;1352;-55
2023/06/27 00:48:22;;;;;;;3.47;1.85;;;;;;;13.44;100.00;101213.53;690142;28;1674;-56
2023/06/27 00:48:44;;;;;;;4.10;1.95;;;;;;;13.41;100.00;101200.44;687769;28;4442;-56
2023/06/27 00:49:07;;;;;;;3.95;1.80;;;;;;;13.40;100.00;101201.31;688775;28;1550;-56
2023/06/27 00:49:28;;;;;;;3.70;1.70;;;;;;;13.40;100.00;101207.47;687332;28;1048;-56
2023/06/27 00:49:51;;;;;;;3.50;1.70;;;;;;;13.39;100.00;101213.59;689600;28;824;-57
2023/06/27 00:50:11;;;;;;;3.40;1.80;;;;;;;13.41;100.00;101205.69;687145;28;1465;-57
2023/06/27 00:50:32;;;;;;;3.45;1.83;;;;;;;13.38;100.00;101201.34;689269;28;841;-55
2023/06/27 00:50:55;;;;;;;3.80;1.80;;;;;;;13.38;100.00;101211.84;690879;28;1571;-56
2023/06/27 00:51:16;;;;;;;3.60;1.70;;;;;;;13.40;100.00;101209.19;691431;28;1700;-57
2023/06/27 00:51:40;;;;;;;3.10;1.70;;;;;;;13.38;100.00;101203.97;693253;28;1530;-57
2023/06/27 00:52:01;;;;;;;3.38;1.80;;;;;;;13.40;100.00;101214.44;693370;28;5080;-57
2023/06/27 00:52:22;;;;;;;5.13;1.90;;;;;;;13.42;100.00;101213.56;691884;28;1339;-57
2023/06/27 00:52:43;;;;;;;4.45;1.88;;;;;;;13.42;100.00;101205.69;689928;28;813;-56
2023/06/27 00:53:04;;;;;;;3.70;1.80;;;;;;;13.40;100.00;101210.09;687806;28;1669;-56
2023/06/27 00:53:25;;;;;;;3.47;1.80;;;;;;;13.40;100.00;101209.19;690554;28;943;-57
2023/06/27 00:53:47;;;;;;;3.35;1.90;;;;;;;13.39;100.00;101197.84;690184;28;1757;-56
2023/06/27 00:54:08;;;;;;;3.37;1.70;;;;;;;13.38;100.00;101203.97;692190;28;1471;-55
2023/06/27 00:54:29;;;;;;;4.65;1.95;;;;;;;13.40;100.00;101207.47;692876;28;1152;-56
2023/06/27 00:54:51;;;;;;;4.15;1.83;;;;;;;13.40;100.00;101201.31;692741;28;4503;-56
2023/06/27 00:55:11;;;;;;;3.80;1.90;;;;;;;13.39;100.00;101204.84;692017;28;1430;-57
2023/06/27 00:55:32;;;;;;;3.80;1.77;;;;;;;13.39;100.00;101203.09;693263;28;1314;-55
2023/06/27 00:55:53;;;;;;;3.22;1.80;;;;;;;13.37;100.00;101204.84;689427;28;1235;-57
2023/06/27 00:56:14;;;;;;;3.38;1.70;;;;;;;13.36;100.00;101211.00;689112;28;1553;-55
2023/06/27 00:56:35;;;;;;;4.25;1.75;;;;;;;13.36;100.00;101196.97;690102;28;1340;-57
2023/06/27 00:56:55;;;;;;;3.42;1.70;;;;;;;13.37;100.00;101203.97;690427;28;892;-57
2023/06/27 00:57:16;;;;;;;3.00;1.50;;;;;;;13.38;100.00;101205.72;688984;28;1666;-56
2023/06/27 00:57:37;;;;;;;5.03;1.70;;;;;;;13.41;100.00;101205.69;688542;28;1449;-56
2023/06/27 00:57:58;;;;;;;4.47;1.85;;;;;;;13.38;100.00;101206.59;691530;28;4438;-57
2023/06/27 00:58:20;;;;;;;4.00;1.70;;;;;;;13.33;100.00;101207.47;692074;28;1543;-57
2023/06/27 00:58:40;;;;;;;3.70;1.80;;;;;;;13.28;100.00;101212.78;692162;28;1980;-55
2023/06/27 00:59:02;;;;;;;5.38;1.95;;;;;;;13.26;100.00;101202.28;690297;28;1228;-57
2023/06/27 00:59:24;;;;;;;4.60;1.90;;;;;;;13.22;100.00;101205.81;691117;28;833;-56
2023/06/27 00:59:45;;;;;;;3.20;1.63;;;;;;;13.20;100.00;101201.44;693540;28;975;-56
2023/06/27 01:00:10;;;;;;;4.10;2.08;;;;;;;13.17;100.00;101207.59;692293;28;1499;-56
2023/06/27 01:00:31;;;;;;;3.50;1.80;;;;;;;13.15;100.00;101206.72;694466;28;1342;-57
2023/06/27 01:00:53;;;;;;;3.60;1.73;;;;;;;13.14;100.00;101212.88;695284;28;4364;-57
2023/06/27 01:01:14;;;;;;;2.83;1.70;;;;;;;13.11;100.00;101202.38;691912;28;1868;-56
2023/06/27 01:01:34;;;;;;;3.80;1.80;;;;;;;13.08;100.00;101207.66;692201;28;1336;-55
2023/06/27 01:01:56;;;;;;;3.88;1.95;;;;;;;13.06;100.00;101207.66;689873;28;1228;-56
2023/06/27 01:02:17;;;;;;;3.28;1.60;;;;;;;13.04;100.00;101213.78;688121;28;2426;-55
2023/06/27 01:02:38;;;;;;;3.20;1.65;;;;;;;13.04;100.00;101213.78;686186;28;1513;-57
2023/06/27 01:02:58;;;;;;;3.50;2.00;;;;;;;13.05;100.00;101207.66;686038;28;1208;-56
2023/06/27 01:03:19;;;;;;;3.92;2.00;;;;;;;13.13;100.00;101205.88;689439;28;1497;-56
2023/06/27 01:03:39;;;;;;;4.23;1.80;;;;;;;13.17;100.00;101209.34;688914;28;1340;-56
2023/06/27 01:04:01;;;;;;;4.93;1.80;;;;;;;13.18;100.00;101206.72;690827;28;4581;-57
2023/06/27 01:04:22;;;;;;;4.53;1.83;;;;;;;13.19;100.00;101211.06;688613;28;889;-56
2023/06/27 01:04:42;;;;;;;4.45;2.00;;;;;;;13.19;100.00;101211.06;689496;28;1015;-56
2023/06/27 01:05:05;;;;;;;3.57;1.90;;;;;;;13.20;100.00;101211.97;689147;28;2190;-57
2023/06/27 01:05:25;;;;;;;3.85;1.70;;;;;;;13.21;100.00;101209.31;690086;28;1536;-57
2023/06/27 01:05:46;;;;;;;3.57;1.70;;;;;;;13.20;100.00;101206.72;690767;28;1218;-56
2023/06/27 01:06:18;;;;;;;3.58;1.80;;;;;;;13.20;100.00;101207.56;692088;28;1517;-56
2023/06/27 01:06:49;;;;;;;2.85;1.77;;;;;;;13.25;100.00;101203.16;695334;28;1338;-56
2023/06/27 01:07:17;;;;;;;5.07;1.88;;;;;;;13.27;100.00;101204.00;694155;28;4921;-56
2023/06/27 01:07:44;;;;;;;3.92;1.80;;;;;;;13.27;100.00;101206.63;691699;28;877;-56
2023/06/27 01:08:29;;;;;;;3.20;1.70;;;;;;;13.29;100.00;101204.88;689967;28;1642;-55
2023/06/27 01:08:59;;;;;;;2.78;1.60;;;;;;;13.31;100.00;101204.00;693258;28;911;-56
2023/06/27 01:09:28;;;;;;;3.72;1.70;;;;;;;13.31;100.00;101204.00;691627;28;1558;-57
2023/06/27 01:09:58;;;;;;;4.38;2.00;;;;;;;13.25;100.00;101200.53;691983;28;4522;-56
2023/06/27 01:10:37;;;;;;;5.30;1.90;;;;;;;13.22;100.00;101204.94;691747;28;1596;-56
2023/06/27 01:11:08;;;;;;;4.13;1.70;;;;;;;13.22;100.00;101199.66;688751;28;1422;-56
2023/06/27 01:11:53;;;;;;;4.25;1.98;;;;;;;13.21;100.00;101208.41;689834;28;963;-55
2023/06/27 01:12:18;;;;;;;3.88;1.70;;;;;;;13.22;100.00;101205.81;692005;28;1543;-56
2023/06/27 01:13:03;;;;;;;3.97;1.85;;;;;;;13.20;100.00;101204.06;687418;28;3267;-56
2023/06/27 01:13:29;;;;;;;3.47;1.60;;;;;;;13.15;100.00;101211.97;692168;28;4917;-56
2023/06/27 01:13:55;;;;;;;3.30;1.80;;;;;;;13.16;100.00;101207.59;688209;28;1490;-56
2023/06/27 01:14:18;;;;;;;4.07;1.80;;;;;;;13.15;100.00;101205.84;685123;28;1600;-55
2023/06/27 01:14:43;;;;;;;3.30;1.70;;;;;;;13.15;100.00;101214.59;688685;28;948;-56
2023/06/27 01:15:06;;;;;;;3.03;1.70;;;;;;;13.13;100.00;101211.13;688774;28;1559;-57
2023/06/27 01:15:28;;;;;;;2.72;1.52;;;;;;;13.13;100.00;101210.25;690237;28;907;-56
2023/06/27 01:15:49;;;;;;;3.13;1.67;;;;;;;13.10;100.00;101203.28;691388;28;4339;-56
2023/06/27 01:16:10;;;;;;;3.58;1.70;;;;;;;13.08;100.00;101208.53;691051;28;1527;-56
2023/06/27 01:16:35;;;;;;;3.38;1.60;;;;;;;13.08;100.00;101205.03;692760;28;1346;-56
2023/06/27 01:16:57;;;;;;;3.63;1.70;;;;;;;13.07;100.00;101206.78;692648;28;1090;-56
2023/06/27 01:17:18;;;;;;;3.42;1.80;;;;;;;13.06;100.00;101205.03;691761;28;1652;-56
2023/06/27 01:17:40;;;;;;;3.47;1.83;;;;;;;13.03;100.00;101197.19;692059;28;1379;-56
2023/06/27 01:18:00;;;;;;;4.38;1.88;;;;;;;13.01;100.00;101212.06;690646;28;1341;-56
2023/06/27 01:18:23;;;;;;;3.75;1.80;;;;;;;13.02;100.00;101212.94;689916;28;1632;-57
2023/06/27 01:18:44;;;;;;;3.58;1.70;;;;;;;13.01;100.00;101212.06;684508;28;4403;-56
2023/06/27 01:19:12;;;;;;;3.30;1.70;;;;;;;13.01;100.00;101204.19;684836;28;1603;-56
2023/06/27 01:19:33;;;;;;;3.55;1.90;;;;;;;13.02;100.00;101197.19;686490;28;928;-56
2023/06/27 01:19:55;;;;;;;3.67;1.80;;;;;;;13.03;100.00;101201.53;688144;28;1417;-56
2023/06/27 01:20:19;;;;;;;4.20;1.80;;;;;;;13.05;100.00;101216.41;690775;28;1531;-56
2023/06/27 01:20:43;;;;;;;3.88;1.80;;;;;;;13.07;100.00;101211.13;694719;28;818;-56
2023/06/27 01:21:08;;;;;;;3.88;1.75;;;;;;;13.07;100.00;101206.78;693967;28;1830;-56
2023/06/27 01:21:32;;;;;;;3.47;1.73;;;;;;;13.08;100.00;101207.66;696144;28;859;-56
2023/06/27 01:22:01;;;;;;;3.70;2.20;;;;;;;13.08;100.00;101208.53;694731;28;4412;-56
2023/06/27 01:22:32;;;;;;;3.70;1.90;;;;;;;13.08;100.00;101210.28;692847;28;1522;-56
2023/06/27 01:23:24;;;;;;;3.35;1.60;;;;;;;13.04;100.00;101204.19;694122;28;867;-56
2023/06/27 01:23:53;;;;;;;3.22;1.65;;;;;;;13.02;100.00;101215.56;693457;28;1008;-56
2023/06/27 01:24:14;;;;;;;5.00;1.77;;;;;;;13.01;100.00;101216.44;689427;28;1503;-56
2023/06/27 01:24:37;;;;;;;4.20;2.00;;;;;;;13.02;100.00;101213.81;692367;28;901;-56
2023/06/27 01:24:59;;;;;;;4.85;1.92;;;;;;;13.02;100.00;101218.19;689741;28;4354;-55
2023/06/27 01:25:20;;;;;;;3.55;1.67;;;;;;;13.01;100.00;101211.19;691441;28;1597;-56
2023/06/27 01:25:40;;;;;;;4.03;1.60;;;;;;;13.04;100.00;101205.91;691486;28;801;-55
2023/06/27 01:26:05;;;;;;;3.90;1.63;;;;;;;13.03;100.00;101209.41;692975;28;895;-56
2023/06/27 01:26:28;;;;;;;4.18;1.90;;;;;;;13.01;100.00;101214.69;695572;28;1337;-56
2023/06/27 01:26:48;;;;;;;4.43;1.83;;;;;;;13.04;100.00;101204.19;690384;28;1180;-57
2023/06/27 01:27:11;;;;;;;3.17;1.77;;;;;;;13.03;100.00;101206.78;688448;28;1453;-55
2023/06/27 01:27:33;;;;;;;3.65;1.80;;;;;;;13.02;100.00;101212.94;688250;28;2232;-56
2023/06/27 01:27:53;;;;;;;4.95;1.83;;;;;;;13.04;100.00;101203.28;688154;28;4537;-56
2023/06/27 01:28:14;;;;;;;4.60;1.70;;;;;;;13.02;100.00;101210.31;686267;28;1587;-56
2023/06/27 01:28:38;;;;;;;3.10;1.60;;;;;;;13.04;100.00;101205.91;689877;28;1008;-56
2023/06/27 01:28:59;;;;;;;4.30;1.85;;;;;;;13.07;100.00;101205.88;690188;28;1367;-56
2023/06/27 01:29:20;;;;;;;4.20;1.67;;;;;;;13.07;100.00;101205.88;688725;28;1551;-56
2023/06/27 01:29:43;;;;;;;3.30;1.60;;;;;;;13.06;100.00;101207.66;689981;28;1413;-55
2023/06/27 01:30:04;;;;;;;3.85;1.80;;;;;;;13.05;100.00;101203.28;689337;28;1577;-56
2023/06/27 01:30:25;;;;;;;3.70;1.70;;;;;;;12.97;100.00;101205.09;691369;28;1165;-56
2023/06/27 01:30:45;;;;;;;4.80;2.03;;;;;;;12.92;100.00;101205.13;691320;28;4518;-55
2023/06/27 01:31:06;;;;;;;3.67;1.83;;;;;;;12.91;100.00;101205.13;694705;28;1524;-55
2023/06/27 01:31:38;;;;;;;3.72;1.80;;;;;;;12.86;100.00;101207.78;692687;28;1520;-57
2023/06/27 01:32:11;;;;;;;4.55;1.90;;;;;;;12.89;100.00;101207.75;692610;28;1019;-54
2023/06/27 01:32:40;;;;;;;3.78;1.92;;;;;;;12.88;100.00;101205.16;692588;28;805;-55
2023/06/27 01:33:06;;;;;;;3.30;1.80;;;;;;;12.85;100.00;101206.03;692966;28;1338;-55
2023/06/27 01:33:41;;;;;;;2.95;1.60;;;;;;;12.82;100.00;101202.56;694842;28;1264;-56
2023/06/27 01:34:07;;;;;;;4.78;1.98;;;;;;;12.79;100.00;101200.81;691709;28;6353;-56
2023/06/27 01:34:33;;;;;;;4.07;1.83;;;;;;;12.82;100.00;101199.94;688810;28;2070;-56
2023/06/27 01:35:11;;;;;;;4.93;2.00;;;;;;;12.89;100.00;101201.63;688613;28;991;-56
2023/06/27 01:35:40;;;;;;;4.07;1.85;;;;;;;12.93;100.00;101209.50;688834;28;1219;-56
2023/06/27 01:36:12;;;;;;;4.40;1.83;;;;;;;12.94;100.00;101200.75;691529;28;757;-56
2023/06/27 01:36:50;;;;;;;3.90;1.75;;;;;;;12.99;100.00;101211.22;691818;28;856;-55
2023/06/27 01:37:21;;;;;;;3.75;1.73;;;;;;;12.99;100.00;101199.81;690967;28;5080;-56
2023/06/27 01:38:05;;;;;;;3.45;1.80;;;;;;;12.96;100.00;101205.97;691994;28;1627;-56
2023/06/27 01:38:35;;;;;;;3.55;1.80;;;;;;;12.98;100.00;101203.34;690630;28;1215;-56
2023/06/27 01:39:06;;;;;;;3.33;1.70;;;;;;;12.96;100.00;101203.34;688085;28;5581;-56
2023/06/27 01:39:35;;;;;;;3.65;1.85;;;;;;;12.97;100.00;101209.47;688521;28;1211;-56
2023/06/27 01:40:14;;;;;;;3.50;1.80;;;;;;;12.99;100.00;101207.69;688299;28;4412;-56
2023/06/27 01:40:36;;;;;;;3.85;1.80;;;;;;;13.01;100.00;101211.19;689906;28;1110;-56
2023/06/27 01:40:59;;;;;;;3.90;1.90;;;;;;;13.00;100.00;101206.81;688482;28;1347;-56
2023/06/27 01:41:20;;;;;;;4.18;2.00;;;;;;;13.00;100.00;101210.34;688156;28;1555;-56
2023/06/27 01:41:45;;;;;;;3.50;1.90;;;;;;;12.98;100.00;101205.97;688519;28;1387;-56
2023/06/27 01:42:18;;;;;;;4.95;1.95;;;;;;;13.02;100.00;101210.31;688484;28;1225;-56
2023/06/27 01:42:41;;;;;;;4.07;1.92;;;;;;;13.00;100.00;101204.19;689204;28;1343;-56
2023/06/27 01:43:08;;;;;;;3.38;1.83;;;;;;;12.99;100.00;101205.06;687771;28;5939;-55
2023/06/27 01:43:30;;;;;;;4.60;1.90;;;;;;;12.97;100.00;101205.09;689263;28;1421;-55
2023/06/27 01:43:54;;;;;;;4.80;1.77;;;;;;;12.98;100.00;101203.34;691164;28;825;-54
2023/06/27 01:44:17;;;;;;;4.88;1.73;;;;;;;12.98;100.00;101205.97;690617;28;1905;-56
2023/06/27 01:44:39;;;;;;;3.90;1.83;;;;;;;12.97;100.00;101194.59;692243;28;836;-55
2023/06/27 01:45:02;;;;;;;4.43;1.80;;;;;;;12.97;100.00;101204.22;693560;28;1480;-56
2023/06/27 01:45:23;;;;;;;5.15;1.80;;;;;;;12.95;100.00;101196.34;692891;28;1579;-56
2023/06/27 01:45:44;;;;;;;3.83;1.80;;;;;;;12.94;100.00;101200.75;688563;28;4629;-56
2023/06/27 01:46:05;;;;;;;2.85;1.60;;;;;;;12.91;100.00;101200.75;687534;28;1615;-56
2023/06/27 01:46:26;;;;;;;3.50;1.70;;;;;;;12.89;100.00;101199.91;689275;28;1466;-56
2023/06/27 01:46:51;;;;;;;4.33;1.70;;;;;;;12.88;100.00;101200.78;689923;28;912;-56
2023/06/27 01:47:12;;;;;;;3.38;1.80;;;;;;;12.88;100.00;101199.91;684966;28;1707;-56
2023/06/27 01:47:36;;;;;;;4.60;2.10;;;;;;;12.88;100.00;101203.38;688131;28;1177;-56
2023/06/27 01:47:58;;;;;;;3.08;1.70;;;;;;;12.90;100.00;101198.13;690103;28;879;-58
2023/06/27 01:48:22;;;;;;;3.60;1.90;;;;;;;12.89;100.00;101199.91;685800;28;1576;-56
2023/06/27 01:48:46;;;;;;;4.07;1.80;;;;;;;12.87;100.00;101198.16;689338;28;4386;-56
2023/06/27 01:49:08;;;;;;;5.05;1.75;;;;;;;12.83;100.00;101199.06;690486;28;1585;-56